Terminal Aerodrome Forecast
Issued by NWS Cleveland, OH

Home | Current Version | Previous Version | Graphics & Text | Print | Product List | Glossary On
Versions: 1 2 3 4 5 6 7 8 9 10 11 12 13 14 15 16 17
000
FTUS41 KCLE 160500
TAFERI
TAF
KERI 160520Z 1606/1706 VRB02KT 4SM -RA BR SCT012 OVC020
      TEMPO 1606/1609 2SM -RA BR OVC012
     FM160900 32003KT 5SM BR OVC012
      TEMPO 1609/1613 3SM BR OVC008
     FM161400 35004KT P6SM OVC012
     FM161600 35008KT P6SM SCT035
     FM170100 28004KT P6SM SKC=

USA.gov is the U.S. government's official web portal to all federal, state and local government web resources and services.